sensor_id;sensor_type;location;lat;lon;timestamp;P1;durP1;ratioP1;P2;durP2;ratioP2
57826;SDS011;43656;57.746;11.780;2023-05-23T00:00:58;3.88;;;1.90;;
57826;SDS011;43656;57.746;11.780;2023-05-23T00:03:25;6.47;;;2.00;;
57826;SDS011;43656;57.746;11.780;2023-05-23T00:05:51;3.65;;;2.15;;
57826;SDS011;43656;57.746;11.780;2023-05-23T00:08:16;7.68;;;2.08;;
57826;SDS011;43656;57.746;11.780;2023-05-23T00:10:42;3.67;;;1.90;;
57826;SDS011;43656;57.746;11.780;2023-05-23T00:13:08;4.38;;;2.00;;
57826;SDS011;43656;57.746;11.780;2023-05-23T00:15:39;5.70;;;2.00;;
57826;SDS011;43656;57.746;11.780;2023-05-23T00:18:05;4.60;;;2.30;;
57826;SDS011;43656;57.746;11.780;2023-05-23T00:20:33;4.28;;;2.20;;
57826;SDS011;43656;57.746;11.780;2023-05-23T00:23:00;9.20;;;2.08;;
57826;SDS011;43656;57.746;11.780;2023-05-23T00:25:27;5.82;;;2.33;;
57826;SDS011;43656;57.746;11.780;2023-05-23T00:28:01;5.97;;;2.20;;
57826;SDS011;43656;57.746;11.780;2023-05-23T00:30:31;6.28;;;2.17;;
57826;SDS011;43656;57.746;11.780;2023-05-23T00:32:58;6.47;;;2.08;;
57826;SDS011;43656;57.746;11.780;2023-05-23T00:35:24;6.88;;;2.30;;
57826;SDS011;43656;57.746;11.780;2023-05-23T00:37:50;3.97;;;2.20;;
57826;SDS011;43656;57.746;11.780;2023-05-23T00:40:18;5.63;;;2.28;;
57826;SDS011;43656;57.746;11.780;2023-05-23T00:42:44;8.50;;;2.15;;
57826;SDS011;43656;57.746;11.780;2023-05-23T00:45:10;5.13;;;2.38;;
57826;SDS011;43656;57.746;11.780;2023-05-23T00:47:37;5.03;;;2.10;;
57826;SDS011;43656;57.746;11.780;2023-05-23T00:50:03;7.32;;;2.13;;
57826;SDS011;43656;57.746;11.780;2023-05-23T00:52:32;9.18;;;2.20;;
57826;SDS011;43656;57.746;11.780;2023-05-23T00:54:58;4.70;;;1.88;;
57826;SDS011;43656;57.746;11.780;2023-05-23T00:57:24;6.82;;;2.50;;
57826;SDS011;43656;57.746;11.780;2023-05-23T00:59:49;6.25;;;2.65;;
57826;SDS011;43656;57.746;11.780;2023-05-23T01:02:15;4.47;;;1.88;;
57826;SDS011;43656;57.746;11.780;2023-05-23T01:04:41;4.80;;;2.50;;
57826;SDS011;43656;57.746;11.780;2023-05-23T01:07:08;4.88;;;2.10;;
57826;SDS011;43656;57.746;11.780;2023-05-23T01:09:34;9.48;;;2.40;;
57826;SDS011;43656;57.746;11.780;2023-05-23T01:14:41;5.35;;;2.22;;
57826;SDS011;43656;57.746;11.780;2023-05-23T01:17:18;8.38;;;2.42;;
57826;SDS011;43656;57.746;11.780;2023-05-23T01:19:55;5.50;;;2.40;;
57826;SDS011;43656;57.746;11.780;2023-05-23T01:25:27;4.97;;;2.03;;
57826;SDS011;43656;57.746;11.780;2023-05-23T01:27:54;7.15;;;2.10;;
57826;SDS011;43656;57.746;11.780;2023-05-23T01:30:22;5.22;;;1.90;;
57826;SDS011;43656;57.746;11.780;2023-05-23T01:32:50;5.78;;;2.10;;
57826;SDS011;43656;57.746;11.780;2023-05-23T01:35:21;7.32;;;2.20;;
57826;SDS011;43656;57.746;11.780;2023-05-23T01:37:50;4.93;;;1.90;;
57826;SDS011;43656;57.746;11.780;2023-05-23T01:40:15;4.53;;;2.10;;
57826;SDS011;43656;57.746;11.780;2023-05-23T01:42:40;4.25;;;2.20;;
57826;SDS011;43656;57.746;11.780;2023-05-23T01:45:06;4.72;;;2.30;;
57826;SDS011;43656;57.746;11.780;2023-05-23T01:47:32;5.68;;;2.10;;
57826;SDS011;43656;57.746;11.780;2023-05-23T01:49:59;6.15;;;2.30;;
57826;SDS011;43656;57.746;11.780;2023-05-23T01:52:26;3.10;;;2.00;;
57826;SDS011;43656;57.746;11.780;2023-05-23T01:54:52;6.80;;;2.30;;
57826;SDS011;43656;57.746;11.780;2023-05-23T01:57:21;4.65;;;2.00;;
57826;SDS011;43656;57.746;11.780;2023-05-23T01:59:46;3.75;;;1.95;;
57826;SDS011;43656;57.746;11.780;2023-05-23T02:02:12;5.07;;;2.15;;
57826;SDS011;43656;57.746;11.780;2023-05-23T02:04:38;3.72;;;1.92;;
57826;SDS011;43656;57.746;11.780;2023-05-23T02:07:03;5.28;;;1.95;;
57826;SDS011;43656;57.746;11.780;2023-05-23T02:09:29;6.15;;;2.45;;
57826;SDS011;43656;57.746;11.780;2023-05-23T02:11:55;5.38;;;2.10;;
57826;SDS011;43656;57.746;11.780;2023-05-23T02:14:21;4.93;;;2.20;;
57826;SDS011;43656;57.746;11.780;2023-05-23T02:16:47;3.60;;;2.08;;
57826;SDS011;43656;57.746;11.780;2023-05-23T02:19:13;4.35;;;2.03;;
57826;SDS011;43656;57.746;11.780;2023-05-23T02:21:38;4.93;;;2.10;;
57826;SDS011;43656;57.746;11.780;2023-05-23T02:24:04;4.15;;;2.20;;
57826;SDS011;43656;57.746;11.780;2023-05-23T02:26:29;3.83;;;1.70;;
57826;SDS011;43656;57.746;11.780;2023-05-23T02:28:55;6.25;;;2.22;;
57826;SDS011;43656;57.746;11.780;2023-05-23T02:31:20;4.22;;;2.00;;
57826;SDS011;43656;57.746;11.780;2023-05-23T02:33:46;4.32;;;2.10;;
57826;SDS011;43656;57.746;11.780;2023-05-23T02:36:11;4.35;;;1.90;;
57826;SDS011;43656;57.746;11.780;2023-05-23T02:38:36;6.85;;;2.15;;
57826;SDS011;43656;57.746;11.780;2023-05-23T02:41:02;3.10;;;2.03;;
57826;SDS011;43656;57.746;11.780;2023-05-23T02:43:28;6.90;;;2.08;;
57826;SDS011;43656;57.746;11.780;2023-05-23T02:45:54;4.93;;;1.90;;
57826;SDS011;43656;57.746;11.780;2023-05-23T02:48:19;3.97;;;2.13;;
57826;SDS011;43656;57.746;11.780;2023-05-23T02:50:45;6.35;;;2.17;;
57826;SDS011;43656;57.746;11.780;2023-05-23T02:53:10;6.65;;;2.08;;
57826;SDS011;43656;57.746;11.780;2023-05-23T02:55:35;5.82;;;2.20;;
57826;SDS011;43656;57.746;11.780;2023-05-23T02:58:02;4.07;;;2.22;;
57826;SDS011;43656;57.746;11.780;2023-05-23T03:00:30;5.13;;;1.92;;
57826;SDS011;43656;57.746;11.780;2023-05-23T03:02:56;3.10;;;2.10;;
57826;SDS011;43656;57.746;11.780;2023-05-23T03:05:22;5.28;;;2.13;;
57826;SDS011;43656;57.746;11.780;2023-05-23T03:07:47;5.25;;;2.15;;
57826;SDS011;43656;57.746;11.780;2023-05-23T03:10:13;7.63;;;1.98;;
57826;SDS011;43656;57.746;11.780;2023-05-23T03:12:38;4.47;;;2.25;;
57826;SDS011;43656;57.746;11.780;2023-05-23T03:15:03;3.85;;;1.90;;
57826;SDS011;43656;57.746;11.780;2023-05-23T03:17:29;4.68;;;2.40;;
57826;SDS011;43656;57.746;11.780;2023-05-23T03:19:55;5.35;;;2.10;;
57826;SDS011;43656;57.746;11.780;2023-05-23T03:22:20;2.72;;;1.80;;
57826;SDS011;43656;57.746;11.780;2023-05-23T03:24:46;3.50;;;1.85;;
57826;SDS011;43656;57.746;11.780;2023-05-23T03:27:11;4.68;;;2.10;;
57826;SDS011;43656;57.746;11.780;2023-05-23T03:29:37;3.35;;;1.90;;
57826;SDS011;43656;57.746;11.780;2023-05-23T03:32:02;4.32;;;2.10;;
57826;SDS011;43656;57.746;11.780;2023-05-23T03:34:28;3.70;;;2.20;;
57826;SDS011;43656;57.746;11.780;2023-05-23T03:36:54;4.88;;;2.50;;
57826;SDS011;43656;57.746;11.780;2023-05-23T03:39:19;3.72;;;2.08;;
57826;SDS011;43656;57.746;11.780;2023-05-23T03:41:45;5.78;;;2.63;;
57826;SDS011;43656;57.746;11.780;2023-05-23T03:44:11;6.25;;;2.45;;
57826;SDS011;43656;57.746;11.780;2023-05-23T03:46:36;5.45;;;2.13;;
57826;SDS011;43656;57.746;11.780;2023-05-23T03:49:02;4.97;;;2.20;;
57826;SDS011;43656;57.746;11.780;2023-05-23T03:51:27;8.13;;;2.38;;
57826;SDS011;43656;57.746;11.780;2023-05-23T03:53:53;3.97;;;2.30;;
57826;SDS011;43656;57.746;11.780;2023-05-23T03:56:18;3.15;;;2.20;;
57826;SDS011;43656;57.746;11.780;2023-05-23T03:58:44;5.70;;;2.30;;
57826;SDS011;43656;57.746;11.780;2023-05-23T04:01:09;4.57;;;2.20;;
57826;SDS011;43656;57.746;11.780;2023-05-23T04:03:35;8.00;;;2.40;;
57826;SDS011;43656;57.746;11.780;2023-05-23T04:06:00;4.05;;;2.33;;
57826;SDS011;43656;57.746;11.780;2023-05-23T04:08:26;4.15;;;2.42;;
57826;SDS011;43656;57.746;11.780;2023-05-23T04:10:53;5.43;;;2.33;;
57826;SDS011;43656;57.746;11.780;2023-05-23T04:13:18;4.95;;;2.22;;
57826;SDS011;43656;57.746;11.780;2023-05-23T04:15:45;4.95;;;2.10;;
57826;SDS011;43656;57.746;11.780;2023-05-23T04:18:12;7.35;;;2.70;;
57826;SDS011;43656;57.746;11.780;2023-05-23T04:20:39;3.40;;;2.30;;
57826;SDS011;43656;57.746;11.780;2023-05-23T04:23:04;5.03;;;2.30;;
57826;SDS011;43656;57.746;11.780;2023-05-23T04:25:30;6.03;;;2.22;;
57826;SDS011;43656;57.746;11.780;2023-05-23T04:27:55;3.47;;;2.22;;
57826;SDS011;43656;57.746;11.780;2023-05-23T04:30:21;7.65;;;2.53;;
57826;SDS011;43656;57.746;11.780;2023-05-23T04:32:47;5.13;;;2.60;;
57826;SDS011;43656;57.746;11.780;2023-05-23T04:35:12;6.70;;;2.38;;
57826;SDS011;43656;57.746;11.780;2023-05-23T04:37:38;6.55;;;2.33;;
57826;SDS011;43656;57.746;11.780;2023-05-23T04:40:04;7.90;;;2.22;;
57826;SDS011;43656;57.746;11.780;2023-05-23T04:42:33;8.10;;;2.50;;
57826;SDS011;43656;57.746;11.780;2023-05-23T04:44:58;4.28;;;2.08;;
57826;SDS011;43656;57.746;11.780;2023-05-23T04:47:26;4.30;;;2.00;;
57826;SDS011;43656;57.746;11.780;2023-05-23T04:49:53;5.07;;;2.30;;
57826;SDS011;43656;57.746;11.780;2023-05-23T04:52:19;5.30;;;2.58;;
57826;SDS011;43656;57.746;11.780;2023-05-23T04:54:45;5.22;;;2.47;;
57826;SDS011;43656;57.746;11.780;2023-05-23T04:57:12;10.30;;;2.60;;
57826;SDS011;43656;57.746;11.780;2023-05-23T04:59:38;5.20;;;2.28;;
57826;SDS011;43656;57.746;11.780;2023-05-23T05:02:05;6.60;;;2.25;;
57826;SDS011;43656;57.746;11.780;2023-05-23T05:04:30;3.58;;;2.40;;
57826;SDS011;43656;57.746;11.780;2023-05-23T05:06:56;7.15;;;2.25;;
57826;SDS011;43656;57.746;11.780;2023-05-23T05:09:22;5.95;;;2.70;;
57826;SDS011;43656;57.746;11.780;2023-05-23T05:11:49;5.40;;;2.30;;
57826;SDS011;43656;57.746;11.780;2023-05-23T05:14:15;4.97;;;2.30;;
57826;SDS011;43656;57.746;11.780;2023-05-23T05:16:40;4.57;;;2.40;;
57826;SDS011;43656;57.746;11.780;2023-05-23T05:19:07;3.88;;;2.10;;
57826;SDS011;43656;57.746;11.780;2023-05-23T05:21:33;4.45;;;2.30;;
57826;SDS011;43656;57.746;11.780;2023-05-23T05:23:58;6.28;;;2.30;;
57826;SDS011;43656;57.746;11.780;2023-05-23T05:26:24;5.90;;;2.17;;
57826;SDS011;43656;57.746;11.780;2023-05-23T05:28:50;3.60;;;2.20;;
57826;SDS011;43656;57.746;11.780;2023-05-23T05:31:17;4.35;;;2.00;;
57826;SDS011;43656;57.746;11.780;2023-05-23T05:33:43;4.57;;;2.30;;
57826;SDS011;43656;57.746;11.780;2023-05-23T05:36:10;3.47;;;2.15;;
57826;SDS011;43656;57.746;11.780;2023-05-23T05:38:35;4.50;;;2.30;;
57826;SDS011;43656;57.746;11.780;2023-05-23T05:41:01;2.80;;;2.20;;
57826;SDS011;43656;57.746;11.780;2023-05-23T05:43:26;4.40;;;2.50;;
57826;SDS011;43656;57.746;11.780;2023-05-23T05:45:52;5.35;;;2.50;;
57826;SDS011;43656;57.746;11.780;2023-05-23T05:48:17;4.60;;;2.40;;
57826;SDS011;43656;57.746;11.780;2023-05-23T05:50:42;6.65;;;2.33;;
57826;SDS011;43656;57.746;11.780;2023-05-23T05:53:09;4.03;;;2.45;;
57826;SDS011;43656;57.746;11.780;2023-05-23T05:55:36;5.25;;;2.35;;
57826;SDS011;43656;57.746;11.780;2023-05-23T05:58:02;5.25;;;2.30;;
57826;SDS011;43656;57.746;11.780;2023-05-23T06:00:28;6.60;;;2.42;;
57826;SDS011;43656;57.746;11.780;2023-05-23T06:02:53;7.95;;;2.40;;
57826;SDS011;43656;57.746;11.780;2023-05-23T06:05:21;4.57;;;2.33;;
57826;SDS011;43656;57.746;11.780;2023-05-23T06:07:48;3.53;;;2.35;;
57826;SDS011;43656;57.746;11.780;2023-05-23T06:10:14;5.80;;;2.63;;
57826;SDS011;43656;57.746;11.780;2023-05-23T06:12:40;5.75;;;2.70;;
57826;SDS011;43656;57.746;11.780;2023-05-23T06:15:06;4.13;;;2.50;;
57826;SDS011;43656;57.746;11.780;2023-05-23T06:17:33;7.50;;;2.70;;
57826;SDS011;43656;57.746;11.780;2023-05-23T06:19:58;7.32;;;2.40;;
57826;SDS011;43656;57.746;11.780;2023-05-23T06:22:24;3.80;;;2.80;;
57826;SDS011;43656;57.746;11.780;2023-05-23T06:24:49;3.22;;;2.17;;
57826;SDS011;43656;57.746;11.780;2023-05-23T06:27:15;5.35;;;2.97;;
57826;SDS011;43656;57.746;11.780;2023-05-23T06:29:40;6.45;;;2.35;;
57826;SDS011;43656;57.746;11.780;2023-05-23T06:32:06;9.48;;;2.55;;
57826;SDS011;43656;57.746;11.780;2023-05-23T06:34:31;4.63;;;2.25;;
57826;SDS011;43656;57.746;11.780;2023-05-23T06:36:57;3.30;;;2.47;;
57826;SDS011;43656;57.746;11.780;2023-05-23T06:39:22;3.78;;;2.25;;
57826;SDS011;43656;57.746;11.780;2023-05-23T06:41:47;5.13;;;2.53;;
57826;SDS011;43656;57.746;11.780;2023-05-23T06:44:13;3.90;;;2.22;;
57826;SDS011;43656;57.746;11.780;2023-05-23T06:46:39;5.93;;;2.70;;
57826;SDS011;43656;57.746;11.780;2023-05-23T06:49:06;5.35;;;2.78;;
57826;SDS011;43656;57.746;11.780;2023-05-23T06:51:32;8.13;;;2.63;;
57826;SDS011;43656;57.746;11.780;2023-05-23T06:53:57;8.70;;;2.70;;
57826;SDS011;43656;57.746;11.780;2023-05-23T06:56:23;4.22;;;2.58;;
57826;SDS011;43656;57.746;11.780;2023-05-23T06:58:48;8.32;;;2.45;;
57826;SDS011;43656;57.746;11.780;2023-05-23T07:01:13;4.13;;;2.47;;
57826;SDS011;43656;57.746;11.780;2023-05-23T07:03:39;3.72;;;2.25;;
57826;SDS011;43656;57.746;11.780;2023-05-23T07:06:07;3.75;;;2.25;;
57826;SDS011;43656;57.746;11.780;2023-05-23T07:08:32;5.10;;;2.53;;
57826;SDS011;43656;57.746;11.780;2023-05-23T07:10:58;5.78;;;2.70;;
57826;SDS011;43656;57.746;11.780;2023-05-23T07:13:24;5.85;;;2.97;;
57826;SDS011;43656;57.746;11.780;2023-05-23T07:15:49;9.52;;;2.50;;
57826;SDS011;43656;57.746;11.780;2023-05-23T07:18:15;6.07;;;2.30;;
57826;SDS011;43656;57.746;11.780;2023-05-23T07:20:40;7.50;;;2.60;;
57826;SDS011;43656;57.746;11.780;2023-05-23T07:23:06;3.40;;;2.30;;
57826;SDS011;43656;57.746;11.780;2023-05-23T07:25:31;6.72;;;2.42;;
57826;SDS011;43656;57.746;11.780;2023-05-23T07:27:56;5.07;;;2.67;;
57826;SDS011;43656;57.746;11.780;2023-05-23T07:30:22;10.02;;;3.10;;
57826;SDS011;43656;57.746;11.780;2023-05-23T07:32:48;4.15;;;2.60;;
57826;SDS011;43656;57.746;11.780;2023-05-23T07:35:14;4.05;;;2.20;;
57826;SDS011;43656;57.746;11.780;2023-05-23T07:37:40;3.80;;;2.53;;
57826;SDS011;43656;57.746;11.780;2023-05-23T07:40:06;6.40;;;2.58;;
57826;SDS011;43656;57.746;11.780;2023-05-23T07:42:35;8.95;;;2.60;;
57826;SDS011;43656;57.746;11.780;2023-05-23T07:45:01;9.68;;;2.90;;
57826;SDS011;43656;57.746;11.780;2023-05-23T07:47:27;6.00;;;2.45;;
57826;SDS011;43656;57.746;11.780;2023-05-23T07:49:52;7.40;;;2.55;;
57826;SDS011;43656;57.746;11.780;2023-05-23T07:52:18;8.02;;;2.38;;
57826;SDS011;43656;57.746;11.780;2023-05-23T07:54:44;4.47;;;2.60;;
57826;SDS011;43656;57.746;11.780;2023-05-23T07:57:09;6.53;;;2.60;;
57826;SDS011;43656;57.746;11.780;2023-05-23T07:59:35;7.75;;;2.90;;
57826;SDS011;43656;57.746;11.780;2023-05-23T08:02:02;9.07;;;2.58;;
57826;SDS011;43656;57.746;11.780;2023-05-23T08:04:28;10.07;;;3.00;;
57826;SDS011;43656;57.746;11.780;2023-05-23T08:06:53;8.70;;;3.00;;
57826;SDS011;43656;57.746;11.780;2023-05-23T08:09:20;16.02;;;6.50;;
57826;SDS011;43656;57.746;11.780;2023-05-23T08:11:45;11.25;;;2.90;;
57826;SDS011;43656;57.746;11.780;2023-05-23T08:14:11;19.00;;;5.45;;
57826;SDS011;43656;57.746;11.780;2023-05-23T08:16:37;5.95;;;2.60;;
57826;SDS011;43656;57.746;11.780;2023-05-23T08:19:02;8.95;;;3.65;;
57826;SDS011;43656;57.746;11.780;2023-05-23T08:21:28;7.70;;;3.60;;
57826;SDS011;43656;57.746;11.780;2023-05-23T08:23:53;4.38;;;2.72;;
57826;SDS011;43656;57.746;11.780;2023-05-23T08:26:19;4.45;;;2.42;;
57826;SDS011;43656;57.746;11.780;2023-05-23T08:28:45;4.45;;;3.00;;
57826;SDS011;43656;57.746;11.780;2023-05-23T08:31:11;4.57;;;2.60;;
57826;SDS011;43656;57.746;11.780;2023-05-23T08:33:37;6.78;;;2.88;;
57826;SDS011;43656;57.746;11.780;2023-05-23T08:36:03;6.60;;;2.90;;
57826;SDS011;43656;57.746;11.780;2023-05-23T08:38:28;5.03;;;2.70;;
57826;SDS011;43656;57.746;11.780;2023-05-23T08:40:54;10.15;;;2.50;;
57826;SDS011;43656;57.746;11.780;2023-05-23T08:43:20;6.93;;;2.50;;
57826;SDS011;43656;57.746;11.780;2023-05-23T08:45:46;4.50;;;2.28;;
57826;SDS011;43656;57.746;11.780;2023-05-23T08:48:15;6.25;;;2.15;;
57826;SDS011;43656;57.746;11.780;2023-05-23T08:50:44;3.60;;;2.00;;
57826;SDS011;43656;57.746;11.780;2023-05-23T08:53:11;3.83;;;2.00;;
57826;SDS011;43656;57.746;11.780;2023-05-23T08:55:44;3.38;;;2.10;;
57826;SDS011;43656;57.746;11.780;2023-05-23T08:58:10;3.38;;;2.15;;
57826;SDS011;43656;57.746;11.780;2023-05-23T09:00:37;4.55;;;2.08;;
57826;SDS011;43656;57.746;11.780;2023-05-23T09:03:03;6.68;;;2.35;;
57826;SDS011;43656;57.746;11.780;2023-05-23T09:05:29;2.58;;;1.92;;
57826;SDS011;43656;57.746;11.780;2023-05-23T09:07:54;6.65;;;2.20;;
57826;SDS011;43656;57.746;11.780;2023-05-23T09:10:21;3.10;;;1.90;;
57826;SDS011;43656;57.746;11.780;2023-05-23T09:12:46;6.45;;;2.30;;
57826;SDS011;43656;57.746;11.780;2023-05-23T09:15:12;6.13;;;2.08;;
57826;SDS011;43656;57.746;11.780;2023-05-23T09:17:37;3.83;;;2.15;;
57826;SDS011;43656;57.746;11.780;2023-05-23T09:20:09;5.38;;;2.20;;
57826;SDS011;43656;57.746;11.780;2023-05-23T09:22:37;4.47;;;2.15;;
57826;SDS011;43656;57.746;11.780;2023-05-23T09:25:03;3.55;;;2.05;;
57826;SDS011;43656;57.746;11.780;2023-05-23T09:27:29;5.35;;;2.30;;
57826;SDS011;43656;57.746;11.780;2023-05-23T09:29:55;5.55;;;2.13;;
57826;SDS011;43656;57.746;11.780;2023-05-23T09:32:20;5.75;;;2.10;;
57826;SDS011;43656;57.746;11.780;2023-05-23T09:37:15;5.18;;;2.40;;
57826;SDS011;43656;57.746;11.780;2023-05-23T09:39:46;4.22;;;2.20;;
57826;SDS011;43656;57.746;11.780;2023-05-23T09:42:17;6.53;;;3.00;;
57826;SDS011;43656;57.746;11.780;2023-05-23T09:44:49;6.50;;;2.47;;
57826;SDS011;43656;57.746;11.780;2023-05-23T09:47:15;4.38;;;2.67;;
57826;SDS011;43656;57.746;11.780;2023-05-23T09:49:44;6.32;;;2.70;;
57826;SDS011;43656;57.746;11.780;2023-05-23T09:52:10;4.25;;;2.53;;
57826;SDS011;43656;57.746;11.780;2023-05-23T09:54:36;4.50;;;2.53;;
57826;SDS011;43656;57.746;11.780;2023-05-23T09:57:02;6.32;;;2.83;;
57826;SDS011;43656;57.746;11.780;2023-05-23T09:59:30;4.15;;;2.72;;
57826;SDS011;43656;57.746;11.780;2023-05-23T10:01:59;7.07;;;2.38;;
57826;SDS011;43656;57.746;11.780;2023-05-23T10:04:29;3.22;;;2.20;;
57826;SDS011;43656;57.746;11.780;2023-05-23T10:06:56;4.20;;;1.95;;
57826;SDS011;43656;57.746;11.780;2023-05-23T10:09:25;2.45;;;1.80;;
57826;SDS011;43656;57.746;11.780;2023-05-23T10:12:12;3.28;;;1.98;;
57826;SDS011;43656;57.746;11.780;2023-05-23T10:15:04;3.58;;;2.10;;
57826;SDS011;43656;57.746;11.780;2023-05-23T10:20:16;3.00;;;1.90;;
57826;SDS011;43656;57.746;11.780;2023-05-23T10:22:44;2.90;;;1.80;;
57826;SDS011;43656;57.746;11.780;2023-05-23T10:25:10;2.83;;;2.05;;
57826;SDS011;43656;57.746;11.780;2023-05-23T10:27:37;2.60;;;1.60;;
57826;SDS011;43656;57.746;11.780;2023-05-23T10:30:07;2.55;;;1.50;;
57826;SDS011;43656;57.746;11.780;2023-05-23T10:32:33;3.95;;;1.88;;
57826;SDS011;43656;57.746;11.780;2023-05-23T10:43:13;3.58;;;1.90;;
57826;SDS011;43656;57.746;11.780;2023-05-23T10:45:44;2.78;;;1.98;;
57826;SDS011;43656;57.746;11.780;2023-05-23T10:48:20;4.28;;;2.15;;
57826;SDS011;43656;57.746;11.780;2023-05-23T10:51:11;3.92;;;1.88;;
57826;SDS011;43656;57.746;11.780;2023-05-23T10:53:42;2.38;;;1.75;;
57826;SDS011;43656;57.746;11.780;2023-05-23T10:56:10;3.55;;;1.90;;
57826;SDS011;43656;57.746;11.780;2023-05-23T11:01:12;2.95;;;1.83;;
57826;SDS011;43656;57.746;11.780;2023-05-23T11:14:16;4.75;;;2.10;;
57826;SDS011;43656;57.746;11.780;2023-05-23T11:16:42;7.38;;;2.22;;
57826;SDS011;43656;57.746;11.780;2023-05-23T11:21:48;4.93;;;2.17;;
57826;SDS011;43656;57.746;11.780;2023-05-23T11:24:14;7.75;;;2.65;;
57826;SDS011;43656;57.746;11.780;2023-05-23T11:26:50;3.67;;;2.08;;
57826;SDS011;43656;57.746;11.780;2023-05-23T11:29:23;8.35;;;2.58;;
57826;SDS011;43656;57.746;11.780;2023-05-23T11:31:50;5.55;;;2.33;;
57826;SDS011;43656;57.746;11.780;2023-05-23T11:34:16;7.38;;;2.60;;
57826;SDS011;43656;57.746;11.780;2023-05-23T11:36:42;7.18;;;2.35;;
57826;SDS011;43656;57.746;11.780;2023-05-23T11:39:08;4.45;;;2.53;;
57826;SDS011;43656;57.746;11.780;2023-05-23T11:41:34;5.32;;;2.50;;
57826;SDS011;43656;57.746;11.780;2023-05-23T11:43:59;7.97;;;2.75;;
57826;SDS011;43656;57.746;11.780;2023-05-23T11:46:25;5.75;;;2.47;;
57826;SDS011;43656;57.746;11.780;2023-05-23T11:48:51;6.35;;;2.83;;
57826;SDS011;43656;57.746;11.780;2023-05-23T11:51:17;9.70;;;2.90;;
57826;SDS011;43656;57.746;11.780;2023-05-23T11:53:44;6.38;;;2.85;;
57826;SDS011;43656;57.746;11.780;2023-05-23T11:56:13;5.03;;;2.85;;
57826;SDS011;43656;57.746;11.780;2023-05-23T11:58:39;5.20;;;2.83;;
57826;SDS011;43656;57.746;11.780;2023-05-23T12:01:09;6.32;;;2.95;;
57826;SDS011;43656;57.746;11.780;2023-05-23T12:03:49;6.00;;;3.10;;
57826;SDS011;43656;57.746;11.780;2023-05-23T12:06:19;10.30;;;3.53;;
57826;SDS011;43656;57.746;11.780;2023-05-23T12:08:46;4.70;;;2.85;;
57826;SDS011;43656;57.746;11.780;2023-05-23T12:11:12;5.70;;;2.83;;
57826;SDS011;43656;57.746;11.780;2023-05-23T12:13:39;4.32;;;3.20;;
57826;SDS011;43656;57.746;11.780;2023-05-23T12:16:07;6.20;;;3.20;;
57826;SDS011;43656;57.746;11.780;2023-05-23T12:18:32;6.68;;;3.30;;
57826;SDS011;43656;57.746;11.780;2023-05-23T12:21:03;5.15;;;3.40;;
57826;SDS011;43656;57.746;11.780;2023-05-23T12:23:32;4.75;;;3.25;;
57826;SDS011;43656;57.746;11.780;2023-05-23T12:26:00;5.78;;;3.17;;
57826;SDS011;43656;57.746;11.780;2023-05-23T12:31:09;6.05;;;3.60;;
57826;SDS011;43656;57.746;11.780;2023-05-23T12:33:39;5.22;;;3.45;;
57826;SDS011;43656;57.746;11.780;2023-05-23T12:36:08;7.93;;;3.58;;
57826;SDS011;43656;57.746;11.780;2023-05-23T12:38:35;6.45;;;3.55;;
57826;SDS011;43656;57.746;11.780;2023-05-23T12:41:11;6.10;;;3.47;;
57826;SDS011;43656;57.746;11.780;2023-05-23T12:43:40;5.82;;;3.28;;
57826;SDS011;43656;57.746;11.780;2023-05-23T12:46:13;7.22;;;3.33;;
57826;SDS011;43656;57.746;11.780;2023-05-23T12:48:39;6.63;;;3.17;;
57826;SDS011;43656;57.746;11.780;2023-05-23T12:51:05;6.55;;;3.38;;
57826;SDS011;43656;57.746;11.780;2023-05-23T12:53:31;6.10;;;3.35;;
57826;SDS011;43656;57.746;11.780;2023-05-23T12:55:56;7.40;;;3.60;;
57826;SDS011;43656;57.746;11.780;2023-05-23T12:58:22;6.75;;;3.78;;
57826;SDS011;43656;57.746;11.780;2023-05-23T13:00:47;10.55;;;3.88;;
57826;SDS011;43656;57.746;11.780;2023-05-23T13:03:13;8.65;;;4.38;;
57826;SDS011;43656;57.746;11.780;2023-05-23T13:05:38;6.47;;;4.18;;
57826;SDS011;43656;57.746;11.780;2023-05-23T13:08:04;9.25;;;3.50;;
57826;SDS011;43656;57.746;11.780;2023-05-23T13:10:30;6.78;;;3.90;;
57826;SDS011;43656;57.746;11.780;2023-05-23T13:12:56;6.28;;;4.00;;
57826;SDS011;43656;57.746;11.780;2023-05-23T13:15:21;7.00;;;3.95;;
57826;SDS011;43656;57.746;11.780;2023-05-23T13:17:47;7.05;;;3.80;;
57826;SDS011;43656;57.746;11.780;2023-05-23T13:20:13;7.85;;;3.70;;
57826;SDS011;43656;57.746;11.780;2023-05-23T13:22:39;6.10;;;3.50;;
57826;SDS011;43656;57.746;11.780;2023-05-23T13:25:06;6.75;;;3.20;;
57826;SDS011;43656;57.746;11.780;2023-05-23T13:27:33;7.03;;;3.00;;
57826;SDS011;43656;57.746;11.780;2023-05-23T13:29:59;3.67;;;2.80;;
57826;SDS011;43656;57.746;11.780;2023-05-23T13:32:25;6.18;;;2.80;;
57826;SDS011;43656;57.746;11.780;2023-05-23T13:34:50;6.22;;;2.83;;
57826;SDS011;43656;57.746;11.780;2023-05-23T13:37:16;4.72;;;2.60;;
57826;SDS011;43656;57.746;11.780;2023-05-23T13:39:41;6.30;;;2.60;;
57826;SDS011;43656;57.746;11.780;2023-05-23T13:42:07;4.32;;;2.40;;
57826;SDS011;43656;57.746;11.780;2023-05-23T13:44:33;6.70;;;2.80;;
57826;SDS011;43656;57.746;11.780;2023-05-23T13:47:08;5.53;;;2.40;;
57826;SDS011;43656;57.746;11.780;2023-05-23T13:49:35;5.75;;;2.30;;
57826;SDS011;43656;57.746;11.780;2023-05-23T13:52:01;3.55;;;2.20;;
57826;SDS011;43656;57.746;11.780;2023-05-23T13:54:26;4.95;;;2.13;;
57826;SDS011;43656;57.746;11.780;2023-05-23T13:56:51;3.55;;;2.20;;
57826;SDS011;43656;57.746;11.780;2023-05-23T13:59:17;4.22;;;1.92;;
57826;SDS011;43656;57.746;11.780;2023-05-23T14:01:48;4.10;;;2.30;;
57826;SDS011;43656;57.746;11.780;2023-05-23T14:04:14;3.67;;;1.88;;
57826;SDS011;43656;57.746;11.780;2023-05-23T14:06:39;3.78;;;2.25;;
57826;SDS011;43656;57.746;11.780;2023-05-23T14:09:05;2.70;;;2.05;;
57826;SDS011;43656;57.746;11.780;2023-05-23T14:11:31;5.18;;;2.00;;
57826;SDS011;43656;57.746;11.780;2023-05-23T14:13:57;3.05;;;2.30;;
57826;SDS011;43656;57.746;11.780;2023-05-23T14:16:22;4.82;;;2.33;;
57826;SDS011;43656;57.746;11.780;2023-05-23T14:18:48;3.67;;;2.33;;
57826;SDS011;43656;57.746;11.780;2023-05-23T14:21:13;6.20;;;2.53;;
57826;SDS011;43656;57.746;11.780;2023-05-23T14:23:40;5.30;;;2.40;;
57826;SDS011;43656;57.746;11.780;2023-05-23T14:26:06;3.08;;;2.38;;
57826;SDS011;43656;57.746;11.780;2023-05-23T14:28:31;5.90;;;2.38;;
57826;SDS011;43656;57.746;11.780;2023-05-23T14:30:57;5.70;;;2.63;;
57826;SDS011;43656;57.746;11.780;2023-05-23T14:33:23;4.10;;;2.20;;
57826;SDS011;43656;57.746;11.780;2023-05-23T14:35:49;3.50;;;2.30;;
57826;SDS011;43656;57.746;11.780;2023-05-23T14:38:15;4.13;;;2.25;;
57826;SDS011;43656;57.746;11.780;2023-05-23T14:40:40;4.28;;;2.50;;
57826;SDS011;43656;57.746;11.780;2023-05-23T14:43:06;5.85;;;2.67;;
57826;SDS011;43656;57.746;11.780;2023-05-23T14:45:31;4.60;;;2.53;;
57826;SDS011;43656;57.746;11.780;2023-05-23T14:47:57;5.88;;;2.60;;
57826;SDS011;43656;57.746;11.780;2023-05-23T14:50:24;3.85;;;2.60;;
57826;SDS011;43656;57.746;11.780;2023-05-23T14:52:49;4.22;;;2.80;;
57826;SDS011;43656;57.746;11.780;2023-05-23T14:55:15;4.90;;;2.70;;
57826;SDS011;43656;57.746;11.780;2023-05-23T14:57:41;3.63;;;2.63;;
57826;SDS011;43656;57.746;11.780;2023-05-23T15:00:07;5.35;;;3.00;;
57826;SDS011;43656;57.746;11.780;2023-05-23T15:02:34;4.13;;;2.90;;
57826;SDS011;43656;57.746;11.780;2023-05-23T15:04:59;6.65;;;3.15;;
57826;SDS011;43656;57.746;11.780;2023-05-23T15:07:25;5.93;;;3.30;;